Tropical Cyclones
[Index]
Main Index Home Page Stock Weather Photos Extreme Storms Discussion Storm News and Storm Chasing Reports Tropical Cyclones / Hurricanes / Typhoons Weather Data and Links Wild Fires / Bushfires Weather Observation Techniques Weather Picture Catalogue Tornado Pictures and Reports Stock Video Footage and DVDs for sale
Season 2011-2012 Tropical Cyclone ETHEL Track Map
Season 2011-2012 Summaries: [BoM-AU] [JTWC-AU] [JTWC-SIO] [JTWC-SPAC] [JTWC-SH]
<<- Previous TC | JTWC 2011-2012 Season | Next TC ->>

click for intensity scale information  Lat/long Grid: Show Hide

 Date Labels: Show Hide

Joint Typhoon Warning Centre Cyclone Data

Name: ETHEL

18 Jan 2012 00:00 UTC to 23 Jan 2012 12:00 UTC

    date/time    lat    long     hPa   cat  kts
2012-01-18 00   12.3    71.8    1007         20          
2012-01-18 06   12.7    70.7    1007         20          
2012-01-18 12   13.1    69.6    1004         25          
2012-01-18 18   13.8    68.6    1000         30          
2012-01-19 00   14.3    67.7     996         35          
2012-01-19 06   14.9    67.0     989    1    45          
2012-01-19 12   16.1    66.4     985    1    50          
2012-01-19 18   17.4    65.9     982    2    55          
2012-01-19 18   17.4    65.9     982    2    55          
2012-01-20 00   17.8    64.9     978    2    60          
2012-01-20 00   17.8    64.9     978    2    60          
2012-01-20 06   18.5    64.8     974    2    65          
2012-01-20 06   18.5    64.8     974    2    65          
2012-01-20 06   18.5    64.8     974    2    65          
2012-01-20 12   19.2    64.7     970    2    70          
2012-01-20 12   19.2    64.7     970    2    70          
2012-01-20 18   19.8    64.2     970    2    70          
2012-01-20 18   19.8    64.2     970    2    70          
2012-01-20 18   19.8    64.2     970    2    70          
2012-01-21 00   20.7    63.9     970    2    70          
2012-01-21 00   20.7    63.9     970    2    70          
2012-01-21 00   20.7    63.9     970    2    70          
2012-01-21 06   21.6    63.8     974    2    65          
2012-01-21 06   21.6    63.8     974    2    65          
2012-01-21 12   22.5    63.8     978    2    60          
2012-01-21 12   22.5    63.8     978    2    60          
2012-01-21 18   23.6    63.9     982    2    55          
2012-01-21 18   23.6    63.9     982    2    55          
2012-01-22 00   24.6    64.2     985    1    50          
2012-01-22 06   26.1    64.6     989    1    45          
2012-01-22 12   27.6    65.1     989    1    45          
2012-01-22 18   29.2    65.8     993    1    40          
2012-01-23 00   30.6    67.0     993    1    40          
2012-01-23 06   31.7    68.5     993    1    40          
2012-01-23 12   33.2    71.4     993    1    40          
Winds are 1-min average.

Tropical cyclone tracks developed by Michael Bath using data from the Joint Typhoon Warning Centre Best Tracks and Google Maps.


[Australian Severe Weather index] [Copyright Notice] [Email Contacts] [Search This Site] [Privacy Policy]
Document: tropical_cyclone_ethel.htm Updated: 28 June 2017